Medlin's Ranch, Nevada Weather observations

Data are for observation ending at time listed.
 Day   Time    Ave.   Ave.  Ave.  Vector   Max.   Stn.    Total    Solar   Ave.  
  of    of     Air    Rel.  Wind   Wind    Wind   Baro.  Precip.   Rad.    Soil  
Year   Day     Temp.  Hum.  Speed  Dir.    Gust   Pres.                    Temp. 
2015   (PST)    F      %     mph   deg.    mph     mb.     in.     W/m2     F   
------------------------------------------------------------------------------
 116    0:00   41.5    70    8.8   342     17.2    858     0.00       0    55.4
 116    1:00   40.6    69    7.3   353     15.4    858     0.00       0    54.5
 116    2:00   39.8    68    9.7    12     18.5    858     0.00       0    53.6
 116    3:00   41.0    61   10.1     1     18.7    859     0.00       0    52.8
 116    4:00   40.7    59    9.9   344     18.9    859     0.00       0    52.1
 116    5:00   39.7    61    8.4   339     18.8    860     0.00       0    51.4
 116    6:00   40.2    62    8.7   335     17.3    860     0.00      83    50.8
 116    7:00   44.9    53   12.0   331     22.5    861     0.00     292    50.4
 116    8:00   48.4    45   13.7   327     22.2    862     0.00     517    50.6
 116    9:00   51.4    33   16.3   335     29.5    862     0.00     682    51.9
 116   10:00   52.8    26   17.6   337     28.7    862     0.00     790    53.9
 116   11:00   54.1    25   14.8   331     24.7    862     0.00     740    56.1
 116   12:00   55.9    23   13.9   333     22.4    862     0.00     913    58.3
 116   13:00   57.4    21   14.9   337     28.3    862     0.00    1012    60.3
 116   14:00   58.9    19   14.4   350     26.2    862     0.00     937    62.0
 116   15:00   58.9    18   16.1     3     28.2    862     0.00     765    62.6
 116   16:00   58.8    17   16.6     3     30.0    862     0.00     596    63.0
 116   17:00   58.2    16   14.9   358     24.0    863     0.00     384    63.1
 116   18:00   56.6    19   13.4   356     21.9    863     0.00     156    62.7
 116   19:00   53.0    22   10.2   349     17.4    864     0.00       8    61.8
 116   20:00   50.3    25   10.9   345     20.6    864     0.00       0    60.7
 116   21:00   49.2    26   10.8   340     22.3    865     0.00       0    59.6
 116   22:00   47.2    29    9.3   328     20.3    866     0.00       0    58.6

Return to Medlin's Ranch, Nevada graphs page.


Western Regional Climate Center,wrcc@dri.edu